Michigan — WDF5344 — position and weather

sailwx.info

Track history (hours):
 
Tides and Currents Weather Stations Pressure Air Temp Water Temp Dewpoint Dewpoint Depression Visibility Wind Speed Wind Dir Waves Ship Positions

Michigan

Owner: GATX Third Aircraft Corporation, San Francisco, CA. More information available from US FCC via Universal Licensing System and Coast Guard Vessel Documentation Center.

Last reported at 2016-Jun-29 03:33 UTC. Time now 2016-Jun-29 03:53 UTC.
Position N 43°12' W 079°12'.

Length 144 m.

Type: Ship (hazmat cat D). MMSI: 303583000.

Date/timePositionNaut miles runAvg speedWind from/ knotsBaromVisibWave heightAir tempDewpointWater temp
2016-Jun-29 03:33N 43°12' W 079°12'2 1.5
2016-Jun-29 02:34N 43°13' W 079°13'4 4.2
2016-Jun-29 01:33N 43°17' W 079°11'256 8.2
2016-Jun-27 18:23N 45°18' W 073°56'2 1.8
2016-Jun-27 17:33N 45°19' W 073°55'5 5.2
2016-Jun-27 16:33N 45°22' W 073°49'8 7.2
2016-Jun-27 15:27N 45°24' W 073°38'4 3.0
2016-Jun-27 14:13N 45°24' W 073°33'9 3.3
2016-Jun-27 11:33N 45°33' W 073°31'2 0.1
2016-Jun-26 08:33N 45°35' W 073°30'5 5.2
2016-Jun-26 07:31N 45°30' W 073°31'2 2.5
2016-Jun-26 06:33N 45°27' W 073°30'4 3.9
2016-Jun-26 05:33N 45°24' W 073°34'3 2.5
2016-Jun-26 04:25N 45°24' W 073°38'6 6.7
2016-Jun-26 03:33N 45°24' W 073°46'8 8.2
2016-Jun-26 02:33N 45°19' W 073°55'1 1.2
2016-Jun-26 01:34N 45°18' W 073°56'12964.3
2016-Jun-25 23:34N 44°05' W 076°25'1 1.0
2016-Jun-25 22:34N 44°06' W 076°24'1 1.0
2016-Jun-25 21:33N 44°05' W 076°25'0 0.0
2016-Jun-25 20:34N 44°05' W 076°25'1 1.0
2016-Jun-25 19:34N 44°06' W 076°24'0 0.0
2016-Jun-25 18:34N 44°06' W 076°24'1 1.0
2016-Jun-25 17:34N 44°05' W 076°25'0 0.0
2016-Jun-25 16:34N 44°05' W 076°25'1 1.0
2016-Jun-25 15:34N 44°06' W 076°24'1 1.0
2016-Jun-25 14:34N 44°05' W 076°25'0 0.0
2016-Jun-25 13:33N 44°05' W 076°25'0 0.0
2016-Jun-25 12:33N 44°05' W 076°25'2 2.0
2016-Jun-25 11:33N 44°03' W 076°26'11810.6
2016-Jun-25 00:24N 43°21' W 078°59'810.1
2016-Jun-24 23:34N 43°18' W 079°09'5 5.3
2016-Jun-24 22:33N 43°13' W 079°13'  
2016-Jun-21 19:33N 45°39' W 084°28'7 7.0
2016-Jun-21 18:33N 45°45' W 084°34'1010.3
2016-Jun-21 17:33N 45°49' W 084°47'1010.4
2016-Jun-21 16:33N 45°51' W 085°02'1010.3
2016-Jun-21 15:33N 45°52' W 085°17'1010.3
2016-Jun-21 14:33N 45°53' W 085°31'1010.0
2016-Jun-21 13:33N 45°49' W 085°45'1010.4
2016-Jun-21 12:33N 45°44' W 085°58'1010.4
2016-Jun-21 11:33N 45°39' W 086°11'1010.3
2016-Jun-21 10:33N 45°34' W 086°23'  
Track history (hours):
 
Tides and Currents Weather Stations Pressure Air Temp Water Temp Dewpoint Dewpoint Depression Visibility Wind Speed Wind Dir Waves Ship Positions

Michigan

Owner: GATX Third Aircraft Corporation, San Francisco, CA. More information available from US FCC via Universal Licensing System and Coast Guard Vessel Documentation Center.

Last reported at 2016-Jun-29 03:33 UTC. Time now 2016-Jun-29 03:53 UTC.
Position N 43°12' W 079°12'.

Length 144 m.

Type: Ship (hazmat cat D). MMSI: 303583000.

Date/timePositionNaut miles runAvg speedWind from/ knotsBaromVisibWave heightAir tempDewpointWater temp
2016-Jun-29 03:33N 43°12' W 079°12'2 1.5
2016-Jun-29 02:34N 43°13' W 079°13'4 4.2
2016-Jun-29 01:33N 43°17' W 079°11'256 8.2
2016-Jun-27 18:23N 45°18' W 073°56'2 1.8
2016-Jun-27 17:33N 45°19' W 073°55'5 5.2
2016-Jun-27 16:33N 45°22' W 073°49'8 7.2
2016-Jun-27 15:27N 45°24' W 073°38'4 3.0
2016-Jun-27 14:13N 45°24' W 073°33'9 3.3
2016-Jun-27 11:33N 45°33' W 073°31'2 0.1
2016-Jun-26 08:33N 45°35' W 073°30'5 5.2
2016-Jun-26 07:31N 45°30' W 073°31'2 2.5
2016-Jun-26 06:33N 45°27' W 073°30'4 3.9
2016-Jun-26 05:33N 45°24' W 073°34'3 2.5
2016-Jun-26 04:25N 45°24' W 073°38'6 6.7
2016-Jun-26 03:33N 45°24' W 073°46'8 8.2
2016-Jun-26 02:33N 45°19' W 073°55'1 1.2
2016-Jun-26 01:34N 45°18' W 073°56'12964.3
2016-Jun-25 23:34N 44°05' W 076°25'1 1.0
2016-Jun-25 22:34N 44°06' W 076°24'1 1.0
2016-Jun-25 21:33N 44°05' W 076°25'0 0.0
2016-Jun-25 20:34N 44°05' W 076°25'1 1.0
2016-Jun-25 19:34N 44°06' W 076°24'0 0.0
2016-Jun-25 18:34N 44°06' W 076°24'1 1.0
2016-Jun-25 17:34N 44°05' W 076°25'0 0.0
2016-Jun-25 16:34N 44°05' W 076°25'1 1.0
2016-Jun-25 15:34N 44°06' W 076°24'1 1.0
2016-Jun-25 14:34N 44°05' W 076°25'0 0.0
2016-Jun-25 13:33N 44°05' W 076°25'0 0.0
2016-Jun-25 12:33N 44°05' W 076°25'2 2.0
2016-Jun-25 11:33N 44°03' W 076°26'11810.6
2016-Jun-25 00:24N 43°21' W 078°59'810.1
2016-Jun-24 23:34N 43°18' W 079°09'5 5.3
2016-Jun-24 22:33N 43°13' W 079°13'  
2016-Jun-21 19:33N 45°39' W 084°28'7 7.0
2016-Jun-21 18:33N 45°45' W 084°34'1010.3
2016-Jun-21 17:33N 45°49' W 084°47'1010.4
2016-Jun-21 16:33N 45°51' W 085°02'1010.3
2016-Jun-21 15:33N 45°52' W 085°17'1010.3
2016-Jun-21 14:33N 45°53' W 085°31'1010.0
2016-Jun-21 13:33N 45°49' W 085°45'1010.4
2016-Jun-21 12:33N 45°44' W 085°58'1010.4
2016-Jun-21 11:33N 45°39' W 086°11'1010.3
2016-Jun-21 10:33N 45°34' W 086°23'  

Dump ship's entire track history